createdAt,value
2023-02-18T00:00:35.671Z,23.19
2023-02-18T00:01:35.995Z,23.22
2023-02-18T00:02:36.056Z,23.22
2023-02-18T00:03:41.244Z,23.17
2023-02-18T00:04:35.755Z,23.19
2023-02-18T00:05:35.927Z,23.19
2023-02-18T00:06:36.070Z,23.22
2023-02-18T00:07:37.972Z,23.23
2023-02-18T00:08:42.188Z,23.23
2023-02-18T00:09:36.067Z,23.25
2023-02-18T00:10:36.240Z,23.25
2023-02-18T00:11:37.001Z,23.27
2023-02-18T00:12:35.604Z,23.27
2023-02-18T00:13:40.858Z,23.23
2023-02-18T00:14:35.745Z,23.25
2023-02-18T00:15:36.428Z,23.25
2023-02-18T00:16:35.582Z,23.25
2023-02-18T00:17:38.806Z,23.27
2023-02-18T00:18:35.592Z,23.25
2023-02-18T00:19:37.927Z,23.28
2023-02-18T00:20:35.785Z,23.27
2023-02-18T00:21:36.425Z,23.23
2023-02-18T00:22:35.388Z,23.25
2023-02-18T00:23:41.544Z,23.25
2023-02-18T00:24:35.513Z,23.23
2023-02-18T00:25:37.116Z,23.25
2023-02-18T00:26:35.881Z,23.25
2023-02-18T00:27:35.858Z,23.23
2023-02-18T00:28:35.639Z,23.22
2023-02-18T00:29:36.516Z,23.20
2023-02-18T00:30:35.328Z,23.22
2023-02-18T00:31:37.477Z,23.20
2023-02-18T00:32:35.872Z,23.19
2023-02-18T00:33:38.303Z,23.20
2023-02-18T00:34:36.263Z,23.20
2023-02-18T00:35:36.526Z,23.19
2023-02-18T00:36:35.205Z,23.16
2023-02-18T00:37:35.605Z,23.16
2023-02-18T00:38:40.018Z,23.16
2023-02-18T00:39:37.012Z,23.17
2023-02-18T00:40:35.113Z,23.13
2023-02-18T00:41:36.350Z,23.15
2023-02-18T00:42:35.112Z,23.13
2023-02-18T00:43:37.238Z,23.13
2023-02-18T00:44:35.439Z,23.16
2023-02-18T00:45:35.785Z,23.13
2023-02-18T00:46:35.939Z,23.13
2023-02-18T00:47:37.967Z,23.12
2023-02-18T00:48:36.389Z,23.12
2023-02-18T00:49:36.028Z,23.12
2023-02-18T00:50:36.004Z,23.12
2023-02-18T00:51:36.324Z,23.15
2023-02-18T00:52:35.190Z,23.09
2023-02-18T00:53:36.483Z,23.10
2023-02-18T00:54:34.923Z,23.09
2023-02-18T00:55:37.664Z,23.10
2023-02-18T00:56:35.152Z,23.05
2023-02-18T00:57:36.910Z,23.07
2023-02-18T00:58:34.880Z,23.09
2023-02-18T00:59:36.786Z,23.07
2023-02-18T01:00:35.043Z,23.07
2023-02-18T01:01:37.519Z,23.09
2023-02-18T01:02:35.893Z,23.07
2023-02-18T01:03:41.876Z,23.10
2023-02-18T01:04:34.847Z,23.05
2023-02-18T01:05:36.124Z,23.04
2023-02-18T01:06:34.792Z,23.05
2023-02-18T01:07:37.184Z,23.07
2023-02-18T01:08:41.020Z,23.07
2023-02-18T01:09:37.378Z,23.07
2023-02-18T01:10:35.693Z,23.05
2023-02-18T01:11:34.925Z,23.05
2023-02-18T01:12:35.515Z,23.07
2023-02-18T01:13:40.566Z,23.07
2023-02-18T01:14:34.880Z,23.04
2023-02-18T01:15:36.232Z,23.04
2023-02-18T01:16:35.010Z,23.04
2023-02-18T01:17:37.562Z,23.05
2023-02-18T01:18:35.809Z,23.05
2023-02-18T01:19:34.886Z,23.04
2023-02-18T01:21:52.766Z,23.07
2023-02-18T01:23:48.203Z,23.07
2023-02-18T01:24:50.577Z,23.04
2023-02-18T01:27:57.196Z,23.09
2023-02-18T01:30:02.376Z,23.04
2023-02-18T01:31:02.142Z,23.02
2023-02-18T01:32:03.098Z,23.02
2023-02-18T01:33:02.976Z,23.02
2023-02-18T01:34:02.178Z,23.07
2023-02-18T01:35:02.532Z,23.04
2023-02-18T01:36:02.119Z,23.05
2023-02-18T01:37:02.592Z,23.01
2023-02-18T01:38:02.137Z,23.01
2023-02-18T01:39:02.525Z,23.04
2023-02-18T01:40:02.444Z,23.01
2023-02-18T01:41:02.145Z,23.04
2023-02-18T01:42:02.241Z,23.00
2023-02-18T01:43:04.971Z,23.02
2023-02-18T01:44:01.969Z,23.02
2023-02-18T01:45:02.922Z,23.02
2023-02-18T01:46:01.978Z,23.01
2023-02-18T01:47:04.981Z,23.01
2023-02-18T01:48:01.940Z,23.00
2023-02-18T01:49:01.883Z,23.01
2023-02-18T01:50:03.199Z,23.04
2023-02-18T01:51:02.190Z,23.01
2023-02-18T01:52:02.452Z,22.98
2023-02-18T01:53:02.609Z,23.02
2023-02-18T01:54:01.813Z,23.01
2023-02-18T01:55:02.659Z,23.01
2023-02-18T01:56:01.829Z,23.01
2023-02-18T01:57:02.107Z,23.00
2023-02-18T01:58:03.183Z,22.97
2023-02-18T01:59:01.744Z,23.00
2023-02-18T02:00:02.788Z,22.98
2023-02-18T02:01:01.928Z,23.04
2023-02-18T02:02:01.786Z,22.97
2023-02-18T02:03:02.375Z,22.98
2023-02-18T02:04:01.660Z,23.00
2023-02-18T02:05:04.658Z,23.00
2023-02-18T02:06:01.698Z,23.00
2023-02-18T02:07:01.687Z,23.00
2023-02-18T02:08:02.011Z,23.00
2023-02-18T02:09:01.737Z,22.98
2023-02-18T02:10:05.350Z,23.00
2023-02-18T02:12:46.264Z,23.01
2023-02-18T02:13:46.361Z,23.00
2023-02-18T02:14:45.990Z,22.98
2023-02-18T02:15:46.415Z,22.98
2023-02-18T02:16:46.238Z,23.01
2023-02-18T02:17:46.331Z,23.00
2023-02-18T02:18:46.487Z,22.95
2023-02-18T02:19:46.435Z,23.00
2023-02-18T02:20:46.329Z,23.00
2023-02-18T02:21:47.175Z,22.98
2023-02-18T02:22:45.673Z,22.97
2023-02-18T02:23:46.267Z,22.98
2023-02-18T02:24:45.831Z,22.98
2023-02-18T02:25:47.029Z,22.97
2023-02-18T02:26:52.212Z,22.97
2023-02-18T02:27:46.188Z,22.98
2023-02-18T02:28:46.007Z,22.97
2023-02-18T02:29:46.777Z,22.98
2023-02-18T02:30:45.901Z,22.95
2023-02-18T02:31:46.725Z,22.95
2023-02-18T02:32:46.234Z,22.94
2023-02-18T02:33:46.909Z,22.94
2023-02-18T02:34:44.634Z,22.95
2023-02-18T02:35:46.584Z,22.95
2023-02-18T02:36:44.727Z,22.95
2023-02-18T02:37:47.005Z,22.95
2023-02-18T02:38:44.610Z,22.95
2023-02-18T02:39:46.802Z,22.95
2023-02-18T02:40:44.640Z,22.95
2023-02-18T02:41:46.681Z,22.94
2023-02-18T02:42:44.621Z,22.95
2023-02-18T02:43:46.849Z,22.94
2023-02-18T02:44:44.627Z,22.94
2023-02-18T02:45:47.334Z,22.94
2023-02-18T02:46:46.774Z,22.98
2023-02-18T02:47:46.728Z,22.95
2023-02-18T02:48:46.212Z,22.94
2023-02-18T02:49:49.856Z,22.91
2023-02-18T02:50:44.605Z,22.95
2023-02-18T02:51:44.300Z,22.94
2023-02-18T02:52:52.003Z,22.94
2023-02-18T02:53:46.547Z,22.97
2023-02-18T02:54:44.296Z,22.94
2023-02-18T02:55:47.078Z,22.94
2023-02-18T02:56:44.365Z,22.92
2023-02-18T02:57:46.608Z,22.92
2023-02-18T02:58:44.274Z,22.95
2023-02-18T02:59:44.378Z,22.95
2023-02-18T03:00:44.350Z,22.95
2023-02-18T03:01:47.141Z,22.91
2023-02-18T03:02:44.230Z,22.92
2023-02-18T03:03:46.924Z,22.92
2023-02-18T03:04:44.107Z,22.91
2023-02-18T03:05:46.955Z,22.90
2023-02-18T03:06:44.124Z,22.91
2023-02-18T03:07:44.396Z,22.91
2023-02-18T03:08:44.217Z,22.91
2023-02-18T03:09:44.536Z,22.91
2023-02-18T03:10:44.032Z,22.90
2023-02-18T03:11:44.226Z,22.91
2023-02-18T03:12:44.030Z,22.90
2023-02-18T03:13:46.950Z,22.90
2023-02-18T03:14:44.754Z,22.94
2023-02-18T03:15:44.082Z,22.90
2023-02-18T03:16:43.999Z,22.90
2023-02-18T03:17:44.089Z,22.91
2023-02-18T03:18:43.918Z,22.92
2023-02-18T03:19:44.476Z,22.91
2023-02-18T03:20:44.014Z,22.91
2023-02-18T03:21:44.099Z,22.91
2023-02-18T03:22:43.933Z,22.92
2023-02-18T03:23:46.889Z,22.90
2023-02-18T03:24:43.941Z,22.90
2023-02-18T03:25:47.113Z,22.88
2023-02-18T03:26:43.906Z,22.91
2023-02-18T03:27:47.651Z,22.88
2023-02-18T03:28:43.843Z,22.88
2023-02-18T03:29:43.843Z,22.90
2023-02-18T03:30:44.704Z,22.88
2023-02-18T03:31:47.989Z,22.90
2023-02-18T03:32:44.568Z,22.86
2023-02-18T03:33:47.247Z,22.90
2023-02-18T03:34:44.441Z,22.88
2023-02-18T03:35:44.015Z,22.90
2023-02-18T03:36:43.653Z,22.86
2023-02-18T03:37:45.054Z,22.86
2023-02-18T03:38:44.224Z,22.86
2023-02-18T03:39:47.018Z,22.86
2023-02-18T03:40:43.901Z,22.86
2023-02-18T03:41:44.273Z,22.86
2023-02-18T03:42:43.938Z,22.90
2023-02-18T03:43:46.628Z,22.91
2023-02-18T03:44:43.636Z,22.88
2023-02-18T03:45:47.322Z,22.88
2023-02-18T03:46:43.566Z,22.88
2023-02-18T03:47:48.081Z,22.86
2023-02-18T03:48:43.594Z,22.86
2023-02-18T03:49:44.483Z,22.86
2023-02-18T03:50:43.579Z,22.86
2023-02-18T03:51:43.505Z,22.91
2023-02-18T03:52:43.637Z,22.86
2023-02-18T03:53:45.461Z,22.86
2023-02-18T03:54:43.452Z,22.88
2023-02-18T03:55:44.251Z,22.86
2023-02-18T03:56:43.666Z,22.90
2023-02-18T03:57:46.651Z,22.88
2023-02-18T03:58:43.537Z,22.88
2023-02-18T03:59:46.290Z,22.86
2023-02-18T04:00:43.359Z,22.83
2023-02-18T04:01:55.013Z,22.86
2023-02-18T04:02:43.365Z,22.86
2023-02-18T04:03:44.882Z,22.86
2023-02-18T04:04:44.209Z,22.86
2023-02-18T04:05:46.699Z,22.86
2023-02-18T04:06:43.280Z,22.85
2023-02-18T04:07:43.462Z,22.86
2023-02-18T04:08:43.418Z,22.85
2023-02-18T04:09:43.652Z,22.85
2023-02-18T04:10:43.194Z,22.85
2023-02-18T04:11:44.409Z,22.85
2023-02-18T04:12:43.241Z,22.83
2023-02-18T04:13:43.544Z,22.85
2023-02-18T04:14:43.487Z,22.86
2023-02-18T04:15:44.062Z,22.86
2023-02-18T04:16:43.542Z,22.83
2023-02-18T04:17:43.768Z,22.85
2023-02-18T04:18:43.269Z,22.85
2023-02-18T04:19:45.454Z,22.86
2023-02-18T04:20:43.245Z,22.86
2023-02-18T04:22:03.989Z,22.88
2023-02-18T04:22:43.054Z,22.83
2023-02-18T04:23:44.015Z,22.86
2023-02-18T04:24:42.991Z,22.83
2023-02-18T04:25:48.119Z,22.83
2023-02-18T04:26:43.059Z,22.80
2023-02-18T04:27:48.151Z,22.82
2023-02-18T04:28:43.050Z,22.82
2023-02-18T04:29:44.261Z,22.82
2023-02-18T04:30:43.052Z,22.82
2023-02-18T04:31:44.060Z,22.82
2023-02-18T04:32:43.865Z,22.80
2023-02-18T04:33:44.043Z,22.80
2023-02-18T04:34:42.854Z,22.80
2023-02-18T04:35:43.340Z,22.80
2023-02-18T04:36:43.789Z,22.83
2023-02-18T04:37:47.512Z,22.82
2023-02-18T04:38:44.310Z,22.82
2023-02-18T04:39:44.546Z,22.82
2023-02-18T04:40:42.885Z,22.80
2023-02-18T04:41:45.130Z,22.83
2023-02-18T04:42:43.634Z,22.80
2023-02-18T04:43:43.666Z,22.80
2023-02-18T04:44:43.242Z,22.77
2023-02-18T04:45:45.121Z,22.80
2023-02-18T04:46:42.996Z,22.80
2023-02-18T04:47:44.506Z,22.80
2023-02-18T04:48:43.615Z,22.80
2023-02-18T04:49:45.092Z,22.80
2023-02-18T04:50:42.778Z,22.80
2023-02-18T04:51:44.083Z,22.80
2023-02-18T04:52:42.978Z,22.80
2023-02-18T04:53:43.021Z,22.80
2023-02-18T04:54:42.625Z,22.79
2023-02-18T04:55:42.836Z,22.79
2023-02-18T04:56:42.833Z,22.80
2023-02-18T04:57:45.507Z,22.79
2023-02-18T04:58:42.516Z,22.77
2023-02-18T04:59:45.990Z,22.80
2023-02-18T05:00:42.539Z,22.82
2023-02-18T05:01:47.968Z,22.80
2023-02-18T05:02:43.694Z,22.80
2023-02-18T05:03:48.229Z,22.80
2023-02-18T05:04:42.706Z,22.82
2023-02-18T05:05:48.563Z,22.77
2023-02-18T05:06:42.509Z,22.80
2023-02-18T05:07:44.529Z,22.76
2023-02-18T05:08:42.738Z,22.77
2023-02-18T05:09:43.464Z,22.79
2023-02-18T05:10:42.579Z,22.76
2023-02-18T05:11:44.696Z,22.77
2023-02-18T05:12:43.907Z,22.76
2023-02-18T05:13:47.317Z,22.75
2023-02-18T05:14:42.770Z,22.76
2023-02-18T05:15:46.539Z,22.77
2023-02-18T05:16:42.251Z,22.77
2023-02-18T05:17:43.309Z,22.75
2023-02-18T05:18:42.230Z,22.76
2023-02-18T05:19:46.171Z,22.73
2023-02-18T05:20:42.453Z,22.77
2023-02-18T05:21:43.367Z,22.76
2023-02-18T05:22:43.207Z,22.77
2023-02-18T05:23:44.966Z,22.77
2023-02-18T05:24:42.191Z,22.77
2023-02-18T05:25:43.037Z,22.75
2023-02-18T05:26:42.300Z,22.75
2023-02-18T05:27:45.404Z,22.75
2023-02-18T05:28:42.109Z,22.73
2023-02-18T05:29:42.758Z,22.76
2023-02-18T05:30:42.243Z,22.75
2023-02-18T05:31:43.330Z,22.76
2023-02-18T05:32:43.104Z,22.73
2023-02-18T05:33:43.918Z,22.76
2023-02-18T05:34:42.062Z,22.76
2023-02-18T05:35:55.184Z,22.73
2023-02-18T05:36:41.996Z,22.77
2023-02-18T05:37:45.138Z,22.73
2023-02-18T05:38:42.108Z,22.76
2023-02-18T05:39:44.252Z,22.75
2023-02-18T05:40:41.916Z,22.73
2023-02-18T05:41:43.652Z,22.75
2023-02-18T05:42:41.927Z,22.75
2023-02-18T05:43:41.931Z,22.72
2023-02-18T05:44:41.909Z,22.75
2023-02-18T05:45:42.581Z,22.73
2023-02-18T05:46:41.949Z,22.73
2023-02-18T05:47:44.106Z,22.72
2023-02-18T05:48:41.791Z,22.75
2023-02-18T05:49:42.101Z,22.75
2023-02-18T05:50:41.891Z,22.75
2023-02-18T05:51:44.438Z,22.73
2023-02-18T05:52:41.811Z,22.76
2023-02-18T05:53:54.861Z,22.77
2023-02-18T05:54:42.032Z,22.77
2023-02-18T05:55:41.999Z,22.80
2023-02-18T05:56:42.107Z,22.80
2023-02-18T05:57:42.962Z,22.82
2023-02-18T05:58:41.745Z,22.85
2023-02-18T05:59:45.728Z,22.82
2023-02-18T06:00:41.699Z,22.82
2023-02-18T06:01:44.820Z,22.83
2023-02-18T06:02:41.678Z,22.88
2023-02-18T06:03:41.858Z,22.88
2023-02-18T06:04:41.648Z,22.91
2023-02-18T06:05:42.471Z,22.85
2023-02-18T06:06:41.570Z,22.90
2023-02-18T06:07:41.931Z,22.91
2023-02-18T06:08:41.665Z,22.91
2023-02-18T06:09:44.824Z,22.94
2023-02-18T06:10:41.531Z,22.90
2023-02-18T06:11:42.192Z,22.92
2023-02-18T06:12:41.498Z,22.94
2023-02-18T06:13:42.375Z,22.91
2023-02-18T06:14:42.152Z,22.95
2023-02-18T06:15:46.373Z,22.91
2023-02-18T06:16:41.468Z,22.95
2023-02-18T06:17:44.024Z,22.95
2023-02-18T06:18:41.426Z,22.94
2023-02-18T06:19:43.642Z,22.95
2023-02-18T06:20:41.444Z,22.97
2023-02-18T06:21:43.171Z,22.94
2023-02-18T06:22:41.389Z,22.95
2023-02-18T06:23:46.931Z,22.94
2023-02-18T06:24:41.521Z,22.95
2023-02-18T06:25:44.067Z,22.97
2023-02-18T06:26:42.011Z,22.97
2023-02-18T06:27:44.054Z,22.97
2023-02-18T06:28:42.051Z,22.97
2023-02-18T06:29:43.916Z,22.95
2023-02-18T06:30:42.247Z,22.94
2023-02-18T06:31:44.299Z,22.94
2023-02-18T06:32:41.237Z,22.91
2023-02-18T06:33:43.633Z,22.91
2023-02-18T06:34:41.290Z,22.92
2023-02-18T06:35:45.311Z,22.91
2023-02-18T06:36:41.191Z,22.91
2023-02-18T06:37:43.262Z,22.88
2023-02-18T06:38:41.853Z,22.86
2023-02-18T06:39:45.352Z,22.90
2023-02-18T06:40:41.069Z,22.88
2023-02-18T06:41:46.419Z,22.90
2023-02-18T06:42:41.536Z,22.91
2023-02-18T06:43:46.995Z,22.90
2023-02-18T06:44:41.176Z,22.86
2023-02-18T06:45:43.716Z,22.90
2023-02-18T06:46:41.485Z,22.88
2023-02-18T06:47:45.238Z,22.90
2023-02-18T06:48:41.055Z,22.90
2023-02-18T06:49:41.291Z,22.91
2023-02-18T06:50:42.956Z,22.90
2023-02-18T06:51:47.311Z,22.88
2023-02-18T06:52:41.243Z,22.90
2023-02-18T06:53:41.998Z,22.88
2023-02-18T06:54:41.409Z,22.88
2023-02-18T06:55:42.341Z,22.86
2023-02-18T06:56:40.915Z,22.88
2023-02-18T06:57:41.205Z,22.86
2023-02-18T06:58:40.910Z,22.88
2023-02-18T06:59:43.447Z,22.83
2023-02-18T07:00:40.831Z,22.85
2023-02-18T07:01:42.691Z,22.83
2023-02-18T07:02:40.858Z,22.85
2023-02-18T07:03:50.716Z,22.90
2023-02-18T07:04:40.751Z,22.86
2023-02-18T07:05:42.008Z,22.85
2023-02-18T07:06:40.783Z,22.85
2023-02-18T07:07:49.448Z,22.90
2023-02-18T07:08:40.955Z,22.88
2023-02-18T07:09:45.707Z,22.85
2023-02-18T07:10:40.642Z,22.88
2023-02-18T07:11:42.912Z,22.85
2023-02-18T07:12:41.424Z,22.90
2023-02-18T07:13:47.525Z,22.86
2023-02-18T07:14:41.131Z,22.90
2023-02-18T07:15:47.178Z,22.91
2023-02-18T07:16:40.657Z,22.91
2023-02-18T07:17:41.972Z,22.90
2023-02-18T07:18:40.705Z,22.88
2023-02-18T07:19:46.644Z,22.88
2023-02-18T07:20:40.658Z,22.94
2023-02-18T07:21:41.019Z,22.91
2023-02-18T07:22:40.549Z,22.90
2023-02-18T07:23:48.544Z,22.91
2023-02-18T07:24:40.562Z,22.92
2023-02-18T07:25:41.530Z,22.91
2023-02-18T07:26:40.595Z,22.92
2023-02-18T07:27:42.552Z,22.92
2023-02-18T07:28:40.574Z,22.90
2023-02-18T07:29:42.976Z,22.90
2023-02-18T07:30:40.422Z,22.91
2023-02-18T07:31:47.348Z,22.91
2023-02-18T07:32:40.564Z,22.92
2023-02-18T07:33:47.178Z,22.94
2023-02-18T07:34:41.330Z,22.92
2023-02-18T07:35:42.555Z,22.91
2023-02-18T07:36:40.300Z,22.94
2023-02-18T07:37:40.958Z,22.92
2023-02-18T07:38:41.994Z,22.91
2023-02-18T07:39:47.395Z,22.91
2023-02-18T07:40:40.442Z,22.94
2023-02-18T07:41:42.204Z,22.91
2023-02-18T07:42:41.218Z,22.92
2023-02-18T07:43:42.260Z,22.92
2023-02-18T07:44:40.586Z,22.92
2023-02-18T07:45:46.688Z,22.91
2023-02-18T07:46:41.129Z,22.90
2023-02-18T07:47:45.806Z,22.91
2023-02-18T07:48:40.233Z,22.90
2023-02-18T07:49:47.469Z,22.90
2023-02-18T07:50:40.213Z,22.86
2023-02-18T07:51:42.673Z,22.88
2023-02-18T07:52:40.107Z,22.86
2023-02-18T07:53:45.848Z,22.90
2023-02-18T07:54:40.329Z,22.86
2023-02-18T07:55:41.796Z,22.85
2023-02-18T07:56:40.144Z,22.86
2023-02-18T07:57:42.064Z,22.82
2023-02-18T07:58:40.300Z,22.83
2023-02-18T07:59:45.173Z,22.83
2023-02-18T08:00:40.043Z,22.85
2023-02-18T08:01:41.357Z,22.83
2023-02-18T08:02:41.119Z,22.83
2023-02-18T08:03:41.329Z,22.80
2023-02-18T08:04:40.224Z,22.85
2023-02-18T08:05:42.820Z,22.80
2023-02-18T08:06:40.135Z,22.83
2023-02-18T08:07:42.975Z,22.86
2023-02-18T08:08:40.074Z,22.83
2023-02-18T08:09:43.826Z,22.82
2023-02-18T08:10:40.249Z,22.83
2023-02-18T08:11:40.926Z,22.86
2023-02-18T08:12:39.949Z,22.85
2023-02-18T08:13:42.444Z,22.86
2023-02-18T08:14:40.028Z,22.83
2023-02-18T08:15:41.739Z,22.86
2023-02-18T08:16:39.976Z,22.88
2023-02-18T08:17:42.771Z,22.86
2023-02-18T08:18:40.812Z,22.83
2023-02-18T08:19:44.370Z,22.85
2023-02-18T08:20:40.781Z,22.85
2023-02-18T08:21:45.471Z,22.83
2023-02-18T08:22:39.744Z,22.85
2023-02-18T08:23:41.899Z,22.88
2023-02-18T08:24:40.191Z,22.90
2023-02-18T08:25:42.093Z,22.85
2023-02-18T08:26:48.577Z,22.86
2023-02-18T08:27:46.745Z,22.83
2023-02-18T08:28:40.599Z,22.90
2023-02-18T08:29:41.824Z,22.90
2023-02-18T08:30:40.142Z,22.91
2023-02-18T08:31:44.938Z,22.90
2023-02-18T08:32:39.688Z,22.90
2023-02-18T08:33:40.725Z,22.91
2023-02-18T08:34:40.446Z,22.92
2023-02-18T08:35:44.823Z,22.91
2023-02-18T08:36:39.452Z,22.92
2023-02-18T08:37:52.785Z,22.94
2023-02-18T08:38:40.604Z,22.95
2023-02-18T08:39:46.624Z,22.95
2023-02-18T08:40:39.493Z,22.92
2023-02-18T08:41:43.154Z,22.95
2023-02-18T08:42:39.444Z,22.98
2023-02-18T08:43:43.131Z,22.95
2023-02-18T08:44:40.406Z,22.97
2023-02-18T08:45:43.284Z,22.95
2023-02-18T08:46:39.430Z,22.97
2023-02-18T08:48:16.914Z,22.94
2023-02-18T08:48:41.298Z,22.95
2023-02-18T08:49:45.846Z,22.97
2023-02-18T08:50:39.443Z,23.00
2023-02-18T08:51:44.555Z,23.00
2023-02-18T08:52:39.219Z,22.98
2023-02-18T08:53:41.886Z,22.98
2023-02-18T08:54:39.233Z,22.98
2023-02-18T08:55:39.999Z,22.98
2023-02-18T08:56:39.592Z,23.01
2023-02-18T08:57:45.177Z,23.01
2023-02-18T08:58:39.159Z,23.00
2023-02-18T08:59:44.894Z,23.01
2023-02-18T09:00:39.158Z,23.00
2023-02-18T09:01:53.028Z,23.02
2023-02-18T09:02:39.500Z,23.01
2023-02-18T09:03:46.486Z,23.01
2023-02-18T09:04:40.981Z,23.02
2023-02-18T09:05:43.611Z,23.01
2023-02-18T09:06:39.020Z,23.02
2023-02-18T09:07:44.758Z,23.00
2023-02-18T09:08:40.665Z,23.04
2023-02-18T09:09:41.342Z,23.04
2023-02-18T09:10:39.009Z,23.02
2023-02-18T09:11:45.512Z,23.04
2023-02-18T09:12:39.100Z,23.02
2023-02-18T09:13:50.969Z,23.05
2023-02-18T09:14:39.257Z,23.07
2023-02-18T09:15:44.655Z,23.04
2023-02-18T09:16:39.975Z,23.04
2023-02-18T09:17:44.023Z,23.05
2023-02-18T09:18:42.320Z,23.05
2023-02-18T09:19:46.761Z,23.05
2023-02-18T09:20:39.245Z,23.04
2023-02-18T09:21:47.827Z,23.05
2023-02-18T09:22:39.464Z,23.09
2023-02-18T09:23:52.737Z,23.07
2023-02-18T09:24:43.017Z,23.07
2023-02-18T09:26:01.318Z,23.07
2023-02-18T09:26:46.517Z,23.09
2023-02-18T09:28:02.367Z,23.09
2023-02-18T09:28:41.291Z,23.09
2023-02-18T09:29:47.580Z,23.12
2023-02-18T09:30:43.826Z,23.10
2023-02-18T09:32:00.009Z,23.16
2023-02-18T09:32:39.337Z,23.12
2023-02-18T09:33:59.727Z,23.15
2023-02-18T09:34:41.249Z,23.17
2023-02-18T09:35:45.634Z,23.17
2023-02-18T09:36:39.089Z,23.17
2023-02-18T09:37:48.065Z,23.16
2023-02-18T09:38:39.397Z,23.17
2023-02-18T09:39:46.210Z,23.17
2023-02-18T09:40:38.620Z,23.19
2023-02-18T09:41:44.804Z,23.20
2023-02-18T09:42:39.558Z,23.19
2023-02-18T09:43:53.074Z,23.20
2023-02-18T09:44:38.559Z,23.20
2023-02-18T09:45:47.931Z,23.23
2023-02-18T09:46:39.196Z,23.17
2023-02-18T09:47:51.176Z,23.23
2023-02-18T09:48:38.589Z,23.19
2023-02-18T09:49:48.212Z,23.20
2023-02-18T09:50:38.512Z,23.22
2023-02-18T09:51:47.617Z,23.20
2023-02-18T09:52:38.458Z,23.22
2023-02-18T09:53:53.113Z,23.20
2023-02-18T09:54:38.825Z,23.20
2023-02-18T09:55:46.532Z,23.20
2023-02-18T09:56:40.469Z,23.20
2023-02-18T09:57:47.599Z,23.20
2023-02-18T09:58:38.691Z,23.19
2023-02-18T09:59:46.435Z,23.20
2023-02-18T10:00:38.583Z,23.20
2023-02-18T10:01:48.243Z,23.20
2023-02-18T10:02:38.305Z,23.22
2023-02-18T10:03:53.166Z,23.22
2023-02-18T10:04:39.716Z,23.23
2023-02-18T10:05:51.608Z,23.25
2023-02-18T10:06:38.526Z,23.22
2023-02-18T10:07:47.309Z,23.23
2023-02-18T10:08:38.739Z,23.19
2023-02-18T10:09:47.973Z,23.22
2023-02-18T10:10:38.279Z,23.25
2023-02-18T10:11:47.519Z,23.23
2023-02-18T10:12:38.178Z,23.23
2023-02-18T10:13:43.952Z,23.22
2023-02-18T10:14:38.255Z,23.22
2023-02-18T10:15:51.718Z,23.22
2023-02-18T10:16:38.170Z,23.23
2023-02-18T10:17:47.586Z,23.23
2023-02-18T10:18:38.754Z,23.20
2023-02-18T10:19:45.072Z,23.22
2023-02-18T10:20:38.488Z,23.20
2023-02-18T10:21:44.026Z,23.23
2023-02-18T10:22:38.603Z,23.22
2023-02-18T10:23:45.694Z,23.22
2023-02-18T10:24:38.432Z,23.22
2023-02-18T10:25:46.583Z,23.22
2023-02-18T10:26:37.957Z,23.22
2023-02-18T10:27:40.628Z,23.23
2023-02-18T10:28:37.948Z,23.22
2023-02-18T10:29:40.791Z,23.22
2023-02-18T10:30:38.935Z,23.20
2023-02-18T10:31:47.677Z,23.22
2023-02-18T10:32:38.132Z,23.22
2023-02-18T10:33:44.831Z,23.23
2023-02-18T10:34:37.856Z,23.22
2023-02-18T10:35:40.602Z,23.19
2023-02-18T10:36:37.866Z,23.22
2023-02-18T10:37:45.540Z,23.22
2023-02-18T10:38:37.750Z,23.23
2023-02-18T10:39:43.772Z,23.23
2023-02-18T10:40:37.729Z,23.23
2023-02-18T10:41:42.990Z,23.27
2023-02-18T10:42:38.748Z,23.28
2023-02-18T10:43:42.975Z,23.32
2023-02-18T10:44:38.970Z,23.33
2023-02-18T10:45:46.471Z,23.35
2023-02-18T10:46:37.787Z,23.36
2023-02-18T10:47:41.392Z,23.38
2023-02-18T10:48:37.817Z,23.39
2023-02-18T10:49:44.375Z,23.43
2023-02-18T10:50:37.846Z,23.43
2023-02-18T10:51:52.534Z,23.43
2023-02-18T10:52:39.030Z,23.48
2023-02-18T10:54:02.699Z,23.50
2023-02-18T10:54:42.413Z,23.51
2023-02-18T10:55:39.905Z,23.53
2023-02-18T10:56:38.601Z,23.53
2023-02-18T10:57:46.635Z,23.53
2023-02-18T10:58:37.537Z,23.54
2023-02-18T10:59:48.664Z,23.55
2023-02-18T11:00:37.430Z,23.54
2023-02-18T11:01:45.627Z,23.57
2023-02-18T11:02:37.439Z,23.57
2023-02-18T11:03:45.073Z,23.57
2023-02-18T11:04:37.590Z,23.57
2023-02-18T11:05:47.324Z,23.60
2023-02-18T11:06:37.404Z,23.60
2023-02-18T11:07:47.340Z,23.58
2023-02-18T11:08:37.301Z,23.60
2023-02-18T11:09:47.051Z,23.58
2023-02-18T11:10:37.638Z,23.60
2023-02-18T11:11:50.683Z,23.63
2023-02-18T11:12:39.262Z,23.60
2023-02-18T11:13:46.972Z,23.66
2023-02-18T11:14:38.462Z,23.63
2023-02-18T11:15:47.936Z,23.65
2023-02-18T11:16:37.263Z,23.65
2023-02-18T11:17:41.508Z,23.61
2023-02-18T11:18:38.204Z,23.63
2023-02-18T11:19:48.237Z,23.63
2023-02-18T11:20:37.230Z,23.66
2023-02-18T11:21:45.961Z,23.65
2023-02-18T11:22:37.115Z,23.66
2023-02-18T11:23:46.110Z,23.66
2023-02-18T11:24:37.072Z,23.65
2023-02-18T11:25:42.108Z,23.68
2023-02-18T11:26:37.416Z,23.68
2023-02-18T11:27:43.688Z,23.66
2023-02-18T11:28:59.086Z,23.66
2023-02-18T11:29:47.762Z,23.68
2023-02-18T11:30:37.154Z,23.66
2023-02-18T11:31:47.718Z,23.69
2023-02-18T11:32:37.989Z,23.66
2023-02-18T11:33:46.984Z,23.70
2023-02-18T11:34:40.768Z,23.69
2023-02-18T11:35:52.955Z,23.69
2023-02-18T11:36:38.793Z,23.72
2023-02-18T11:37:48.283Z,23.70
2023-02-18T11:38:37.163Z,23.72
2023-02-18T11:39:39.139Z,23.69
2023-02-18T11:40:36.885Z,23.75
2023-02-18T11:41:37.991Z,23.73
2023-02-18T11:42:39.115Z,23.79
2023-02-18T11:43:43.475Z,23.80
2023-02-18T11:44:36.854Z,23.85
2023-02-18T11:45:39.094Z,23.83
2023-02-18T11:46:36.883Z,23.87
2023-02-18T11:47:40.408Z,23.90
2023-02-18T11:48:36.865Z,23.93
2023-02-18T11:49:39.628Z,23.93
2023-02-18T11:50:37.044Z,23.94
2023-02-18T11:51:43.568Z,23.94
2023-02-18T11:52:36.768Z,24.00
2023-02-18T11:53:39.870Z,24.02
2023-02-18T11:54:36.729Z,24.03
2023-02-18T11:55:46.744Z,24.06
2023-02-18T11:56:36.637Z,24.06
2023-02-18T11:57:37.368Z,24.10
2023-02-18T11:58:36.753Z,24.09
2023-02-18T11:59:38.993Z,24.12
2023-02-18T12:00:36.724Z,24.15
2023-02-18T12:01:38.418Z,24.18
2023-02-18T12:02:36.635Z,24.16
2023-02-18T12:03:40.532Z,24.21
2023-02-18T12:04:36.983Z,24.21
2023-02-18T12:05:46.131Z,24.22
2023-02-18T12:06:36.560Z,24.22
2023-02-18T12:07:38.236Z,24.22
2023-02-18T12:08:36.507Z,24.25
2023-02-18T12:09:39.099Z,24.25
2023-02-18T12:10:36.538Z,24.25
2023-02-18T12:11:39.219Z,24.30
2023-02-18T12:12:37.360Z,24.28
2023-02-18T12:13:44.811Z,24.27
2023-02-18T12:14:36.507Z,24.30
2023-02-18T12:15:37.250Z,24.27
2023-02-18T12:16:36.511Z,24.27
2023-02-18T12:17:38.776Z,24.25
2023-02-18T12:18:38.791Z,24.28
2023-02-18T12:19:36.870Z,24.28
2023-02-18T12:20:36.374Z,24.28
2023-02-18T12:21:37.360Z,24.27
2023-02-18T12:22:36.315Z,24.27
2023-02-18T12:23:36.404Z,24.27
2023-02-18T12:24:36.338Z,24.28
2023-02-18T12:25:44.541Z,24.30
2023-02-18T12:26:36.316Z,24.30
2023-02-18T12:27:38.500Z,24.30
2023-02-18T12:28:36.280Z,24.30
2023-02-18T12:29:39.831Z,24.34
2023-02-18T12:30:36.386Z,24.32
2023-02-18T12:31:40.229Z,24.35
2023-02-18T12:32:36.448Z,24.34
2023-02-18T12:33:39.098Z,24.35
2023-02-18T12:34:36.867Z,24.37
2023-02-18T12:35:39.623Z,24.39
2023-02-18T12:36:36.111Z,24.37
2023-02-18T12:37:42.272Z,24.43
2023-02-18T12:38:36.221Z,24.42
2023-02-18T12:39:42.191Z,24.42
2023-02-18T12:40:36.096Z,24.45
2023-02-18T12:41:40.292Z,24.43
2023-02-18T12:42:36.177Z,24.45
2023-02-18T12:43:39.642Z,24.45
2023-02-18T12:44:36.575Z,24.45
2023-02-18T12:45:37.522Z,24.46
2023-02-18T12:46:36.091Z,24.46
2023-02-18T12:47:40.740Z,24.46
2023-02-18T12:48:35.874Z,24.45
2023-02-18T12:49:38.248Z,24.47
2023-02-18T12:50:35.866Z,24.49
2023-02-18T12:51:42.460Z,24.47
2023-02-18T12:52:35.872Z,24.47
2023-02-18T12:53:39.831Z,24.49
2023-02-18T12:54:35.856Z,24.47
2023-02-18T12:55:36.801Z,24.49
2023-02-18T12:56:35.871Z,24.47
2023-02-18T12:57:41.887Z,24.50
2023-02-18T12:58:35.908Z,24.52
2023-02-18T12:59:38.596Z,24.49